Terminal Aerodrome Forecast
Issued by NWS Memphis, TN

Home | Current Version | Previous Version | Text Only | Print | Product List | Glossary On
Versions: 1 2 3 4 5 6 7 8 9 10 11 12 13 14 15 16 17 18 19 20 21 22 23 24 25 26 27 28 29 30 31 32 33
697
FTUS44 KMEG 281500 AAC
TAFMEM
TAF AMD
KMEM 281500Z 2815/2912 20012G20KT P6SM FEW010 BKN060
      TEMPO 2817/2819 BKN020
     FM281900 23012G18KT P6SM BKN025
     FM282100 25010G17KT P6SM VCTS BKN040CB
     FM290000 27006KT P6SM BKN050
     FM290500 03004KT P6SM SCT050=

USA.gov is the U.S. government's official web portal to all federal, state and local government web resources and services.